SAMR/AFA METAR and TAF weather

Enter ICAO airport designator
Station Type Date Time Source
SAMR METAR 2019/08/19 03:00 UTC NOAA

SAMR 190300Z 14003KT 9999 -DZ OVC004 02/02 Q1028


Station Type Date Time Source
SAMR Decoded METAR 2019/08/19 03:00 UTC NOAA

Station name not available
Aug 18, 2019 - 11:00 PM EDT / 2019.08.19 0300 UTC
Wind: from the SE (140 degrees) at 3 MPH (3 KT):0
Visibility: greater than 7 mile(s):0
Sky conditions: overcast
Weather: light drizzle
Temperature: 35 F (2 C)
Dew Point: 35 F (2 C)
Relative Humidity: 100%
Pressure (altimeter): 30.36 in. Hg (1028 hPa)
ob: SAMR 190300Z 14003KT 9999 -DZ OVC004 02/02 Q1028
cycle: 3

Station Type Date Time Source
SAMR TAF 2019/08/18 18:03 UTC NOAA

TAF SAMR 181700Z 1818/1918 16010KT 9999 OVC030 SCT070 TX12/1819Z TN01/1911Z

Example: see airport list